sensor_id;sensor_type;location;lat;lon;timestamp;temperature;humidity
44723;DHT22;30451;48.638;10.624;2022-10-16T00:01:13;23.70;59.20
44723;DHT22;30451;48.638;10.624;2022-10-16T00:03:40;23.70;59.20
44723;DHT22;30451;48.638;10.624;2022-10-16T00:06:06;23.80;59.20
44723;DHT22;30451;48.638;10.624;2022-10-16T00:08:31;23.70;59.10
44723;DHT22;30451;48.638;10.624;2022-10-16T00:11:05;23.70;59.10
44723;DHT22;30451;48.638;10.624;2022-10-16T00:13:32;23.70;59.20
44723;DHT22;30451;48.638;10.624;2022-10-16T00:15:59;23.70;59.30
44723;DHT22;30451;48.638;10.624;2022-10-16T00:18:25;23.70;59.70
44723;DHT22;30451;48.638;10.624;2022-10-16T00:20:51;23.70;59.30
44723;DHT22;30451;48.638;10.624;2022-10-16T00:23:17;23.70;59.30
44723;DHT22;30451;48.638;10.624;2022-10-16T00:25:43;23.70;59.30
44723;DHT22;30451;48.638;10.624;2022-10-16T00:28:08;23.60;59.30
44723;DHT22;30451;48.638;10.624;2022-10-16T00:30:38;23.60;59.30
44723;DHT22;30451;48.638;10.624;2022-10-16T00:33:04;23.60;59.30
44723;DHT22;30451;48.638;10.624;2022-10-16T00:35:30;23.60;59.30
44723;DHT22;30451;48.638;10.624;2022-10-16T00:37:56;23.60;59.30
44723;DHT22;30451;48.638;10.624;2022-10-16T00:40:21;23.60;59.40
44723;DHT22;30451;48.638;10.624;2022-10-16T00:42:47;23.50;59.30
44723;DHT22;30451;48.638;10.624;2022-10-16T00:45:13;23.60;59.40
44723;DHT22;30451;48.638;10.624;2022-10-16T00:47:43;23.50;59.40
44723;DHT22;30451;48.638;10.624;2022-10-16T00:52:51;23.50;59.40
44723;DHT22;30451;48.638;10.624;2022-10-16T00:55:17;23.50;59.40
44723;DHT22;30451;48.638;10.624;2022-10-16T00:57:44;23.50;59.40
44723;DHT22;30451;48.638;10.624;2022-10-16T01:00:13;23.50;59.50
44723;DHT22;30451;48.638;10.624;2022-10-16T01:02:39;23.50;59.50
44723;DHT22;30451;48.638;10.624;2022-10-16T01:05:05;23.50;59.50
44723;DHT22;30451;48.638;10.624;2022-10-16T01:07:56;23.50;59.50
44723;DHT22;30451;48.638;10.624;2022-10-16T01:15:21;23.40;59.60
44723;DHT22;30451;48.638;10.624;2022-10-16T01:17:57;23.40;59.60
44723;DHT22;30451;48.638;10.624;2022-10-16T01:20:31;23.40;59.70
44723;DHT22;30451;48.638;10.624;2022-10-16T01:26:13;23.40;59.70
44723;DHT22;30451;48.638;10.624;2022-10-16T01:29:02;23.40;59.80
44723;DHT22;30451;48.638;10.624;2022-10-16T01:31:33;23.40;59.70
44723;DHT22;30451;48.638;10.624;2022-10-16T01:34:02;23.40;59.70
44723;DHT22;30451;48.638;10.624;2022-10-16T01:36:39;23.40;59.80
44723;DHT22;30451;48.638;10.624;2022-10-16T01:39:09;23.30;59.70
44723;DHT22;30451;48.638;10.624;2022-10-16T01:41:44;23.40;59.80
44723;DHT22;30451;48.638;10.624;2022-10-16T01:44:15;23.30;59.80
44723;DHT22;30451;48.638;10.624;2022-10-16T01:46:46;23.30;59.80
44723;DHT22;30451;48.638;10.624;2022-10-16T01:49:13;23.30;59.80
44723;DHT22;30451;48.638;10.624;2022-10-16T01:51:40;23.30;59.90
44723;DHT22;30451;48.638;10.624;2022-10-16T01:54:08;23.30;59.90
44723;DHT22;30451;48.638;10.624;2022-10-16T01:56:34;23.20;59.80
44723;DHT22;30451;48.638;10.624;2022-10-16T01:59:05;23.20;59.90
44723;DHT22;30451;48.638;10.624;2022-10-16T02:01:34;23.20;59.90
44723;DHT22;30451;48.638;10.624;2022-10-16T02:04:15;23.20;59.90
44723;DHT22;30451;48.638;10.624;2022-10-16T02:06:41;23.20;60.00
44723;DHT22;30451;48.638;10.624;2022-10-16T02:09:07;23.20;60.00
44723;DHT22;30451;48.638;10.624;2022-10-16T02:11:32;23.20;60.00
44723;DHT22;30451;48.638;10.624;2022-10-16T02:14:05;23.20;60.00
44723;DHT22;30451;48.638;10.624;2022-10-16T02:16:37;23.20;60.00
44723;DHT22;30451;48.638;10.624;2022-10-16T02:19:04;23.20;60.10
44723;DHT22;30451;48.638;10.624;2022-10-16T02:29:41;23.10;60.10
44723;DHT22;30451;48.638;10.624;2022-10-16T02:32:12;23.10;60.20
44723;DHT22;30451;48.638;10.624;2022-10-16T02:34:39;23.10;60.20
44723;DHT22;30451;48.638;10.624;2022-10-16T02:37:06;23.10;60.20
44723;DHT22;30451;48.638;10.624;2022-10-16T02:39:33;23.10;60.20
44723;DHT22;30451;48.638;10.624;2022-10-16T02:41:59;23.10;60.20
44723;DHT22;30451;48.638;10.624;2022-10-16T02:44:24;23.10;60.30
44723;DHT22;30451;48.638;10.624;2022-10-16T02:46:50;23.10;60.30
44723;DHT22;30451;48.638;10.624;2022-10-16T02:49:16;23.10;60.30
44723;DHT22;30451;48.638;10.624;2022-10-16T02:51:41;23.00;60.20
44723;DHT22;30451;48.638;10.624;2022-10-16T02:54:07;23.00;60.20
44723;DHT22;30451;48.638;10.624;2022-10-16T02:56:32;23.00;60.20
44723;DHT22;30451;48.638;10.624;2022-10-16T02:58:58;23.00;60.30
44723;DHT22;30451;48.638;10.624;2022-10-16T03:01:24;23.00;60.30
44723;DHT22;30451;48.638;10.624;2022-10-16T03:03:50;23.00;60.30
44723;DHT22;30451;48.638;10.624;2022-10-16T03:06:15;23.00;60.30
44723;DHT22;30451;48.638;10.624;2022-10-16T03:08:41;23.00;60.20
44723;DHT22;30451;48.638;10.624;2022-10-16T03:11:07;23.00;60.30
44723;DHT22;30451;48.638;10.624;2022-10-16T03:13:32;23.00;60.30
44723;DHT22;30451;48.638;10.624;2022-10-16T03:15:58;23.00;60.20
44723;DHT22;30451;48.638;10.624;2022-10-16T03:18:24;23.00;60.20
44723;DHT22;30451;48.638;10.624;2022-10-16T03:20:49;23.00;60.20
44723;DHT22;30451;48.638;10.624;2022-10-16T03:23:15;23.00;60.20
44723;DHT22;30451;48.638;10.624;2022-10-16T03:25:41;23.00;60.30
44723;DHT22;30451;48.638;10.624;2022-10-16T03:28:06;23.00;60.30
44723;DHT22;30451;48.638;10.624;2022-10-16T03:30:32;22.90;60.20
44723;DHT22;30451;48.638;10.624;2022-10-16T03:32:58;23.00;60.30
44723;DHT22;30451;48.638;10.624;2022-10-16T03:35:24;23.00;60.30
44723;DHT22;30451;48.638;10.624;2022-10-16T03:37:50;22.90;60.20
44723;DHT22;30451;48.638;10.624;2022-10-16T03:40:16;22.90;60.20
44723;DHT22;30451;48.638;10.624;2022-10-16T03:42:43;22.90;60.30
44723;DHT22;30451;48.638;10.624;2022-10-16T03:45:09;22.90;60.30
44723;DHT22;30451;48.638;10.624;2022-10-16T03:47:35;22.90;60.30
44723;DHT22;30451;48.638;10.624;2022-10-16T03:50:01;22.90;60.30
44723;DHT22;30451;48.638;10.624;2022-10-16T03:52:27;22.90;60.30
44723;DHT22;30451;48.638;10.624;2022-10-16T03:54:52;22.90;60.30
44723;DHT22;30451;48.638;10.624;2022-10-16T03:57:18;22.90;60.30
44723;DHT22;30451;48.638;10.624;2022-10-16T03:59:44;22.90;60.30
44723;DHT22;30451;48.638;10.624;2022-10-16T04:02:09;22.90;60.30
44723;DHT22;30451;48.638;10.624;2022-10-16T04:04:35;22.90;60.30
44723;DHT22;30451;48.638;10.624;2022-10-16T04:07:01;22.90;60.30
44723;DHT22;30451;48.638;10.624;2022-10-16T04:09:27;22.90;60.40
44723;DHT22;30451;48.638;10.624;2022-10-16T04:11:52;22.90;60.30
44723;DHT22;30451;48.638;10.624;2022-10-16T04:14:18;22.90;60.30
44723;DHT22;30451;48.638;10.624;2022-10-16T04:16:44;22.90;60.30
44723;DHT22;30451;48.638;10.624;2022-10-16T04:19:10;22.80;60.30
44723;DHT22;30451;48.638;10.624;2022-10-16T04:21:36;22.90;60.40
44723;DHT22;30451;48.638;10.624;2022-10-16T04:24:02;22.80;60.20
44723;DHT22;30451;48.638;10.624;2022-10-16T04:26:28;22.90;60.30
44723;DHT22;30451;48.638;10.624;2022-10-16T04:28:53;22.80;60.20
44723;DHT22;30451;48.638;10.624;2022-10-16T04:31:20;22.80;60.20
44723;DHT22;30451;48.638;10.624;2022-10-16T04:33:45;22.80;60.80
44723;DHT22;30451;48.638;10.624;2022-10-16T04:36:11;22.80;60.30
44723;DHT22;30451;48.638;10.624;2022-10-16T04:38:37;22.90;60.40
44723;DHT22;30451;48.638;10.624;2022-10-16T04:41:05;22.80;60.40
44723;DHT22;30451;48.638;10.624;2022-10-16T04:43:31;22.80;60.90
44723;DHT22;30451;48.638;10.624;2022-10-16T04:45:57;22.80;60.30
44723;DHT22;30451;48.638;10.624;2022-10-16T04:48:22;22.80;60.30
44723;DHT22;30451;48.638;10.624;2022-10-16T04:50:48;22.80;60.30
44723;DHT22;30451;48.638;10.624;2022-10-16T04:53:14;22.80;60.70
44723;DHT22;30451;48.638;10.624;2022-10-16T04:55:40;22.80;60.30
44723;DHT22;30451;48.638;10.624;2022-10-16T04:58:06;22.80;60.40
44723;DHT22;30451;48.638;10.624;2022-10-16T05:00:32;22.80;60.30
44723;DHT22;30451;48.638;10.624;2022-10-16T05:02:58;22.80;60.40
44723;DHT22;30451;48.638;10.624;2022-10-16T05:05:26;22.80;60.40
44723;DHT22;30451;48.638;10.624;2022-10-16T05:07:52;22.80;60.30
44723;DHT22;30451;48.638;10.624;2022-10-16T05:10:17;22.80;60.40
44723;DHT22;30451;48.638;10.624;2022-10-16T05:12:43;22.80;60.40
44723;DHT22;30451;48.638;10.624;2022-10-16T05:15:09;22.70;60.30
44723;DHT22;30451;48.638;10.624;2022-10-16T05:17:35;22.70;60.30
44723;DHT22;30451;48.638;10.624;2022-10-16T05:20:00;22.80;60.30
44723;DHT22;30451;48.638;10.624;2022-10-16T05:22:26;22.70;60.30
44723;DHT22;30451;48.638;10.624;2022-10-16T05:24:51;22.70;60.30
44723;DHT22;30451;48.638;10.624;2022-10-16T05:27:17;22.70;60.30
44723;DHT22;30451;48.638;10.624;2022-10-16T05:29:46;22.80;60.40
44723;DHT22;30451;48.638;10.624;2022-10-16T05:32:13;22.70;60.30
44723;DHT22;30451;48.638;10.624;2022-10-16T05:34:39;22.80;61.00
44723;DHT22;30451;48.638;10.624;2022-10-16T05:37:05;22.70;60.30
44723;DHT22;30451;48.638;10.624;2022-10-16T05:39:31;22.70;60.30
44723;DHT22;30451;48.638;10.624;2022-10-16T05:41:56;22.70;60.30
44723;DHT22;30451;48.638;10.624;2022-10-16T05:44:22;22.70;60.30
44723;DHT22;30451;48.638;10.624;2022-10-16T05:46:48;22.70;60.30
44723;DHT22;30451;48.638;10.624;2022-10-16T05:49:13;22.70;60.30
44723;DHT22;30451;48.638;10.624;2022-10-16T05:51:39;22.70;60.20
44723;DHT22;30451;48.638;10.624;2022-10-16T05:54:05;22.70;60.20
44723;DHT22;30451;48.638;10.624;2022-10-16T05:56:30;22.70;60.20
44723;DHT22;30451;48.638;10.624;2022-10-16T05:58:56;22.70;60.10
44723;DHT22;30451;48.638;10.624;2022-10-16T06:01:21;22.70;60.10
44723;DHT22;30451;48.638;10.624;2022-10-16T06:03:50;22.70;60.10
44723;DHT22;30451;48.638;10.624;2022-10-16T06:06:18;22.70;60.10
44723;DHT22;30451;48.638;10.624;2022-10-16T06:08:44;22.70;60.10
44723;DHT22;30451;48.638;10.624;2022-10-16T06:11:16;22.70;60.00
44723;DHT22;30451;48.638;10.624;2022-10-16T06:13:42;22.70;60.10
44723;DHT22;30451;48.638;10.624;2022-10-16T06:16:12;22.70;60.10
44723;DHT22;30451;48.638;10.624;2022-10-16T06:18:38;22.70;60.10
44723;DHT22;30451;48.638;10.624;2022-10-16T06:21:12;22.70;60.10
44723;DHT22;30451;48.638;10.624;2022-10-16T06:23:38;22.70;60.10
44723;DHT22;30451;48.638;10.624;2022-10-16T06:26:11;22.70;60.10
44723;DHT22;30451;48.638;10.624;2022-10-16T06:28:37;22.70;60.20
44723;DHT22;30451;48.638;10.624;2022-10-16T06:31:05;22.70;60.20
44723;DHT22;30451;48.638;10.624;2022-10-16T06:33:31;22.70;60.20
44723;DHT22;30451;48.638;10.624;2022-10-16T06:36:01;22.70;60.30
44723;DHT22;30451;48.638;10.624;2022-10-16T06:38:28;22.70;60.30
44723;DHT22;30451;48.638;10.624;2022-10-16T06:40:54;22.70;60.30
44723;DHT22;30451;48.638;10.624;2022-10-16T06:43:19;22.70;60.30
44723;DHT22;30451;48.638;10.624;2022-10-16T06:48:18;22.70;60.40
44723;DHT22;30451;48.638;10.624;2022-10-16T06:50:44;22.70;60.40
44723;DHT22;30451;48.638;10.624;2022-10-16T06:53:10;22.60;60.30
44723;DHT22;30451;48.638;10.624;2022-10-16T06:55:35;22.70;60.40
44723;DHT22;30451;48.638;10.624;2022-10-16T06:58:01;22.60;60.40
44723;DHT22;30451;48.638;10.624;2022-10-16T07:00:26;22.60;60.50
44723;DHT22;30451;48.638;10.624;2022-10-16T07:02:52;22.70;60.50
44723;DHT22;30451;48.638;10.624;2022-10-16T07:05:17;22.60;60.50
44723;DHT22;30451;48.638;10.624;2022-10-16T07:07:43;22.70;60.60
44723;DHT22;30451;48.638;10.624;2022-10-16T07:10:08;22.60;60.60
44723;DHT22;30451;48.638;10.624;2022-10-16T07:12:34;22.60;60.60
44723;DHT22;30451;48.638;10.624;2022-10-16T07:15:00;22.60;60.60
44723;DHT22;30451;48.638;10.624;2022-10-16T07:17:25;22.60;60.60
44723;DHT22;30451;48.638;10.624;2022-10-16T07:19:51;22.60;60.60
44723;DHT22;30451;48.638;10.624;2022-10-16T07:22:18;22.60;60.70
44723;DHT22;30451;48.638;10.624;2022-10-16T07:24:44;22.60;60.70
44723;DHT22;30451;48.638;10.624;2022-10-16T07:27:10;22.60;60.70
44723;DHT22;30451;48.638;10.624;2022-10-16T07:29:35;22.60;60.70
44723;DHT22;30451;48.638;10.624;2022-10-16T07:32:01;22.60;60.70
44723;DHT22;30451;48.638;10.624;2022-10-16T07:34:27;22.60;60.80
44723;DHT22;30451;48.638;10.624;2022-10-16T07:36:53;22.60;60.80
44723;DHT22;30451;48.638;10.624;2022-10-16T07:39:18;22.60;60.80
44723;DHT22;30451;48.638;10.624;2022-10-16T07:41:44;22.60;60.80
44723;DHT22;30451;48.638;10.624;2022-10-16T07:44:10;22.60;60.80
44723;DHT22;30451;48.638;10.624;2022-10-16T07:46:35;22.60;60.80
44723;DHT22;30451;48.638;10.624;2022-10-16T07:49:02;22.60;60.80
44723;DHT22;30451;48.638;10.624;2022-10-16T07:51:28;22.60;60.80
44723;DHT22;30451;48.638;10.624;2022-10-16T07:53:54;22.60;60.80
44723;DHT22;30451;48.638;10.624;2022-10-16T07:56:20;22.60;60.80
44723;DHT22;30451;48.638;10.624;2022-10-16T07:58:46;22.60;60.70
44723;DHT22;30451;48.638;10.624;2022-10-16T08:01:14;22.60;60.70
44723;DHT22;30451;48.638;10.624;2022-10-16T08:03:46;22.70;60.70
44723;DHT22;30451;48.638;10.624;2022-10-16T08:06:12;22.60;60.60
44723;DHT22;30451;48.638;10.624;2022-10-16T08:08:37;22.60;60.60
44723;DHT22;30451;48.638;10.624;2022-10-16T08:11:03;22.70;60.70
44723;DHT22;30451;48.638;10.624;2022-10-16T08:13:30;22.70;60.70
44723;DHT22;30451;48.638;10.624;2022-10-16T08:15:55;22.60;60.70
44723;DHT22;30451;48.638;10.624;2022-10-16T08:18:21;22.60;60.60
44723;DHT22;30451;48.638;10.624;2022-10-16T08:20:47;22.60;60.70
44723;DHT22;30451;48.638;10.624;2022-10-16T08:23:13;22.70;60.70
44723;DHT22;30451;48.638;10.624;2022-10-16T08:25:40;22.70;60.70
44723;DHT22;30451;48.638;10.624;2022-10-16T08:28:07;22.60;60.60
44723;DHT22;30451;48.638;10.624;2022-10-16T08:30:33;22.60;60.60
44723;DHT22;30451;48.638;10.624;2022-10-16T08:32:59;22.60;60.70
44723;DHT22;30451;48.638;10.624;2022-10-16T08:35:25;22.60;60.70
44723;DHT22;30451;48.638;10.624;2022-10-16T08:37:51;22.70;60.70
44723;DHT22;30451;48.638;10.624;2022-10-16T08:40:20;22.60;60.60
44723;DHT22;30451;48.638;10.624;2022-10-16T08:51:20;22.60;60.80
44723;DHT22;30451;48.638;10.624;2022-10-16T08:53:56;22.60;60.80
44723;DHT22;30451;48.638;10.624;2022-10-16T08:56:23;22.70;60.90
44723;DHT22;30451;48.638;10.624;2022-10-16T08:58:49;22.60;60.80
44723;DHT22;30451;48.638;10.624;2022-10-16T09:01:17;22.60;60.80
44723;DHT22;30451;48.638;10.624;2022-10-16T09:12:46;22.60;61.10
44723;DHT22;30451;48.638;10.624;2022-10-16T09:18:01;22.60;61.30
44723;DHT22;30451;48.638;10.624;2022-10-16T09:23:12;22.60;61.30
44723;DHT22;30451;48.638;10.624;2022-10-16T09:25:40;22.60;61.40
44723;DHT22;30451;48.638;10.624;2022-10-16T09:28:07;22.60;61.30
44723;DHT22;30451;48.638;10.624;2022-10-16T09:30:34;22.60;61.40
44723;DHT22;30451;48.638;10.624;2022-10-16T09:33:00;22.60;61.40
44723;DHT22;30451;48.638;10.624;2022-10-16T09:35:38;22.60;61.50
44723;DHT22;30451;48.638;10.624;2022-10-16T09:38:05;22.60;61.60
44723;DHT22;30451;48.638;10.624;2022-10-16T09:40:34;22.70;61.50
44723;DHT22;30451;48.638;10.624;2022-10-16T09:43:17;22.70;61.50
44723;DHT22;30451;48.638;10.624;2022-10-16T09:46:27;22.60;61.40
44723;DHT22;30451;48.638;10.624;2022-10-16T09:48:49;22.60;61.40
44723;DHT22;30451;48.638;10.624;2022-10-16T09:51:22;22.60;61.40
44723;DHT22;30451;48.638;10.624;2022-10-16T09:53:53;22.60;61.40
44723;DHT22;30451;48.638;10.624;2022-10-16T09:56:42;22.60;61.40
44723;DHT22;30451;48.638;10.624;2022-10-16T09:59:19;22.60;61.40
44723;DHT22;30451;48.638;10.624;2022-10-16T10:01:51;22.60;61.30
44723;DHT22;30451;48.638;10.624;2022-10-16T10:04:21;22.70;61.40
44723;DHT22;30451;48.638;10.624;2022-10-16T10:09:19;22.60;61.40
44723;DHT22;30451;48.638;10.624;2022-10-16T10:11:47;22.70;61.40
44723;DHT22;30451;48.638;10.624;2022-10-16T10:16:52;22.70;61.60
44723;DHT22;30451;48.638;10.624;2022-10-16T10:19:22;22.60;61.60
44723;DHT22;30451;48.638;10.624;2022-10-16T10:21:49;22.60;61.60
44723;DHT22;30451;48.638;10.624;2022-10-16T10:24:17;22.60;61.70
44723;DHT22;30451;48.638;10.624;2022-10-16T10:27:00;22.60;61.90
44723;DHT22;30451;48.638;10.624;2022-10-16T10:30:03;22.70;62.30
44723;DHT22;30451;48.638;10.624;2022-10-16T10:33:06;22.70;62.70
44723;DHT22;30451;48.638;10.624;2022-10-16T10:35:49;22.70;63.00
44723;DHT22;30451;48.638;10.624;2022-10-16T10:38:24;22.70;63.30
44723;DHT22;30451;48.638;10.624;2022-10-16T10:40:56;22.70;63.50
44723;DHT22;30451;48.638;10.624;2022-10-16T10:46:02;22.70;63.50
44723;DHT22;30451;48.638;10.624;2022-10-16T10:48:54;22.70;63.30
44723;DHT22;30451;48.638;10.624;2022-10-16T10:56:45;22.70;63.50
44723;DHT22;30451;48.638;10.624;2022-10-16T11:01:55;22.70;63.10
44723;DHT22;30451;48.638;10.624;2022-10-16T11:04:38;22.70;62.80
44723;DHT22;30451;48.638;10.624;2022-10-16T11:07:28;22.70;62.60
44723;DHT22;30451;48.638;10.624;2022-10-16T11:10:03;22.70;62.20
44723;DHT22;30451;48.638;10.624;2022-10-16T11:12:42;22.70;61.90
44723;DHT22;30451;48.638;10.624;2022-10-16T11:17:55;22.70;61.60
44723;DHT22;30451;48.638;10.624;2022-10-16T11:20:32;22.70;61.60
44723;DHT22;30451;48.638;10.624;2022-10-16T11:23:16;22.70;61.60
44723;DHT22;30451;48.638;10.624;2022-10-16T11:25:43;22.70;61.60
44723;DHT22;30451;48.638;10.624;2022-10-16T11:28:14;22.70;61.60
44723;DHT22;30451;48.638;10.624;2022-10-16T11:30:54;22.70;61.70
44723;DHT22;30451;48.638;10.624;2022-10-16T11:33:32;22.70;61.60
44723;DHT22;30451;48.638;10.624;2022-10-16T11:36:10;22.70;61.60
44723;DHT22;30451;48.638;10.624;2022-10-16T11:38:39;22.70;61.70
44723;DHT22;30451;48.638;10.624;2022-10-16T11:41:31;22.70;61.60
44723;DHT22;30451;48.638;10.624;2022-10-16T11:46:36;22.80;61.80
44723;DHT22;30451;48.638;10.624;2022-10-16T11:49:11;22.80;61.70
44723;DHT22;30451;48.638;10.624;2022-10-16T11:52:00;22.70;61.70
44723;DHT22;30451;48.638;10.624;2022-10-16T11:54:50;22.70;61.70
44723;DHT22;30451;48.638;10.624;2022-10-16T11:57:23;22.70;61.70
44723;DHT22;30451;48.638;10.624;2022-10-16T12:00:20;22.70;61.60
44723;DHT22;30451;48.638;10.624;2022-10-16T12:03:23;22.70;62.00
44723;DHT22;30451;48.638;10.624;2022-10-16T12:08:35;22.70;61.90
44723;DHT22;30451;48.638;10.624;2022-10-16T12:16:38;22.70;62.20
44723;DHT22;30451;48.638;10.624;2022-10-16T12:19:17;22.70;62.00
44723;DHT22;30451;48.638;10.624;2022-10-16T12:21:43;22.80;62.00
44723;DHT22;30451;48.638;10.624;2022-10-16T12:24:36;22.70;62.00
44723;DHT22;30451;48.638;10.624;2022-10-16T12:27:04;22.70;62.00
44723;DHT22;30451;48.638;10.624;2022-10-16T12:29:41;22.70;62.00
44723;DHT22;30451;48.638;10.624;2022-10-16T12:32:40;22.80;62.10
44723;DHT22;30451;48.638;10.624;2022-10-16T12:35:21;22.80;62.10
44723;DHT22;30451;48.638;10.624;2022-10-16T12:37:47;22.80;62.10
44723;DHT22;30451;48.638;10.624;2022-10-16T12:40:31;22.80;62.20
44723;DHT22;30451;48.638;10.624;2022-10-16T12:42:57;22.80;62.20
44723;DHT22;30451;48.638;10.624;2022-10-16T12:47:53;22.80;62.20
44723;DHT22;30451;48.638;10.624;2022-10-16T12:50:36;22.80;62.30
44723;DHT22;30451;48.638;10.624;2022-10-16T12:53:15;22.80;62.40
44723;DHT22;30451;48.638;10.624;2022-10-16T12:55:57;22.80;62.30
44723;DHT22;30451;48.638;10.624;2022-10-16T13:01:26;22.90;62.50
44723;DHT22;30451;48.638;10.624;2022-10-16T13:18:29;22.80;62.40
44723;DHT22;30451;48.638;10.624;2022-10-16T13:26:33;22.90;62.30
44723;DHT22;30451;48.638;10.624;2022-10-16T13:29:00;22.90;62.80
44723;DHT22;30451;48.638;10.624;2022-10-16T13:31:27;22.90;62.30
44723;DHT22;30451;48.638;10.624;2022-10-16T13:33:58;22.90;62.20
44723;DHT22;30451;48.638;10.624;2022-10-16T13:36:25;22.90;62.30
44723;DHT22;30451;48.638;10.624;2022-10-16T13:39:15;22.90;62.30
44723;DHT22;30451;48.638;10.624;2022-10-16T13:41:44;22.90;62.30
44723;DHT22;30451;48.638;10.624;2022-10-16T13:44:15;22.90;62.20
44723;DHT22;30451;48.638;10.624;2022-10-16T13:46:42;22.90;62.10
44723;DHT22;30451;48.638;10.624;2022-10-16T13:49:16;22.90;62.10
44723;DHT22;30451;48.638;10.624;2022-10-16T13:51:54;22.90;62.10
44723;DHT22;30451;48.638;10.624;2022-10-16T13:54:20;22.90;62.00
44723;DHT22;30451;48.638;10.624;2022-10-16T13:56:45;22.90;62.00
44723;DHT22;30451;48.638;10.624;2022-10-16T13:59:34;22.90;62.00
44723;DHT22;30451;48.638;10.624;2022-10-16T14:02:05;22.90;62.00
44723;DHT22;30451;48.638;10.624;2022-10-16T14:04:38;22.90;62.00
44723;DHT22;30451;48.638;10.624;2022-10-16T14:07:05;22.90;62.00
44723;DHT22;30451;48.638;10.624;2022-10-16T14:09:30;22.90;62.00
44723;DHT22;30451;48.638;10.624;2022-10-16T14:12:09;22.90;62.20
44723;DHT22;30451;48.638;10.624;2022-10-16T14:14:41;22.90;62.00
44723;DHT22;30451;48.638;10.624;2022-10-16T14:17:24;23.00;62.10
44723;DHT22;30451;48.638;10.624;2022-10-16T14:19:56;22.90;62.10
44723;DHT22;30451;48.638;10.624;2022-10-16T14:22:38;23.00;62.10
44723;DHT22;30451;48.638;10.624;2022-10-16T14:30:35;23.00;62.10
44723;DHT22;30451;48.638;10.624;2022-10-16T14:33:04;23.00;62.10
44723;DHT22;30451;48.638;10.624;2022-10-16T14:35:31;23.00;62.10
44723;DHT22;30451;48.638;10.624;2022-10-16T14:37:59;23.00;62.10
44723;DHT22;30451;48.638;10.624;2022-10-16T14:40:28;23.00;62.30
44723;DHT22;30451;48.638;10.624;2022-10-16T14:42:55;23.00;62.20
44723;DHT22;30451;48.638;10.624;2022-10-16T14:45:24;23.00;62.20
44723;DHT22;30451;48.638;10.624;2022-10-16T14:47:53;23.00;62.20
44723;DHT22;30451;48.638;10.624;2022-10-16T14:50:19;23.00;62.20
44723;DHT22;30451;48.638;10.624;2022-10-16T14:52:44;23.00;62.20
44723;DHT22;30451;48.638;10.624;2022-10-16T14:55:10;23.00;62.20
44723;DHT22;30451;48.638;10.624;2022-10-16T14:57:37;23.00;62.10
44723;DHT22;30451;48.638;10.624;2022-10-16T15:00:13;23.00;62.20
44723;DHT22;30451;48.638;10.624;2022-10-16T15:02:40;23.00;62.10
44723;DHT22;30451;48.638;10.624;2022-10-16T15:05:16;23.00;62.00
44723;DHT22;30451;48.638;10.624;2022-10-16T15:07:42;23.00;61.90
44723;DHT22;30451;48.638;10.624;2022-10-16T15:10:09;23.00;62.00
44723;DHT22;30451;48.638;10.624;2022-10-16T15:12:35;23.00;61.90
44723;DHT22;30451;48.638;10.624;2022-10-16T15:15:01;23.00;62.00
44723;DHT22;30451;48.638;10.624;2022-10-16T15:17:26;23.00;61.80
44723;DHT22;30451;48.638;10.624;2022-10-16T15:19:52;23.00;61.90
44723;DHT22;30451;48.638;10.624;2022-10-16T15:22:18;23.00;61.80
44723;DHT22;30451;48.638;10.624;2022-10-16T15:24:43;23.00;62.00
44723;DHT22;30451;48.638;10.624;2022-10-16T15:27:09;23.00;61.90
44723;DHT22;30451;48.638;10.624;2022-10-16T15:29:35;23.00;61.90
44723;DHT22;30451;48.638;10.624;2022-10-16T15:32:00;23.00;62.10
44723;DHT22;30451;48.638;10.624;2022-10-16T15:34:26;23.00;62.00
44723;DHT22;30451;48.638;10.624;2022-10-16T15:36:52;23.00;62.10
44723;DHT22;30451;48.638;10.624;2022-10-16T15:39:19;23.00;62.10
44723;DHT22;30451;48.638;10.624;2022-10-16T15:41:46;23.10;62.00
44723;DHT22;30451;48.638;10.624;2022-10-16T15:44:20;23.00;61.90
44723;DHT22;30451;48.638;10.624;2022-10-16T15:46:46;23.00;62.00
44723;DHT22;30451;48.638;10.624;2022-10-16T15:49:12;23.10;61.90
44723;DHT22;30451;48.638;10.624;2022-10-16T15:51:40;23.00;61.80
44723;DHT22;30451;48.638;10.624;2022-10-16T15:54:06;23.10;61.90
44723;DHT22;30451;48.638;10.624;2022-10-16T15:56:32;23.10;61.90
44723;DHT22;30451;48.638;10.624;2022-10-16T15:58:59;23.10;61.90
44723;DHT22;30451;48.638;10.624;2022-10-16T16:01:25;23.10;61.90
44723;DHT22;30451;48.638;10.624;2022-10-16T16:03:54;23.00;62.00
44723;DHT22;30451;48.638;10.624;2022-10-16T16:06:21;23.10;62.60
44723;DHT22;30451;48.638;10.624;2022-10-16T16:08:46;23.10;63.10
44723;DHT22;30451;48.638;10.624;2022-10-16T16:11:14;23.20;63.00
44723;DHT22;30451;48.638;10.624;2022-10-16T16:13:40;23.30;63.20
44723;DHT22;30451;48.638;10.624;2022-10-16T16:16:15;23.30;62.90
44723;DHT22;30451;48.638;10.624;2022-10-16T16:18:41;23.30;62.80
44723;DHT22;30451;48.638;10.624;2022-10-16T16:21:08;23.40;62.70
44723;DHT22;30451;48.638;10.624;2022-10-16T16:23:34;23.40;62.50
44723;DHT22;30451;48.638;10.624;2022-10-16T16:28:30;23.50;62.30
44723;DHT22;30451;48.638;10.624;2022-10-16T16:30:55;23.50;62.50
44723;DHT22;30451;48.638;10.624;2022-10-16T16:33:21;23.50;62.50
44723;DHT22;30451;48.638;10.624;2022-10-16T16:35:47;23.50;62.80
44723;DHT22;30451;48.638;10.624;2022-10-16T16:38:12;23.60;62.20
44723;DHT22;30451;48.638;10.624;2022-10-16T16:40:38;23.70;62.10
44723;DHT22;30451;48.638;10.624;2022-10-16T16:43:04;23.70;61.80
44723;DHT22;30451;48.638;10.624;2022-10-16T16:45:29;23.70;61.80
44723;DHT22;30451;48.638;10.624;2022-10-16T16:47:55;23.70;61.60
44723;DHT22;30451;48.638;10.624;2022-10-16T16:50:21;23.80;61.60
44723;DHT22;30451;48.638;10.624;2022-10-16T16:52:46;23.80;61.50
44723;DHT22;30451;48.638;10.624;2022-10-16T16:55:12;23.80;61.40
44723;DHT22;30451;48.638;10.624;2022-10-16T16:57:37;23.90;61.40
44723;DHT22;30451;48.638;10.624;2022-10-16T17:00:03;23.90;61.30
44723;DHT22;30451;48.638;10.624;2022-10-16T17:02:29;23.90;61.30
44723;DHT22;30451;48.638;10.624;2022-10-16T17:04:55;24.00;61.30
44723;DHT22;30451;48.638;10.624;2022-10-16T17:07:22;24.00;61.30
44723;DHT22;30451;48.638;10.624;2022-10-16T17:09:50;24.00;61.20
44723;DHT22;30451;48.638;10.624;2022-10-16T17:12:16;24.10;61.20
44723;DHT22;30451;48.638;10.624;2022-10-16T17:14:41;24.10;61.10